Time;durP1;ratioP1;P1;durP2;ratioP2;P2;SDS_P1;SDS_P2;PMS_P1;PMS_P2;Temp;Humidity;BMP_temperature;BMP_pressure;BME280_temperature;BME280_humidity;BME280_pressure;Samples;Min_cycle;Max_cycle;Signal;HPM_P1;HPM_P2
2023/07/11 00:01:12;;;;;;;4.47;2.80;;;;;;;;;;5094005;28;20989;-82
2023/07/11 00:03:38;;;;;;;4.53;2.47;;;;;;;;;;5095011;28;20470;-82
2023/07/11 00:06:07;;;;;;;3.00;1.97;;;;;;;;;;5095165;28;20870;-82
2023/07/11 00:08:36;;;;;;;5.83;2.87;;;;;;;;;;5093455;28;20406;-82
2023/07/11 00:11:02;;;;;;;7.80;2.93;;;;;;;;;;5094752;28;20466;-84
2023/07/11 00:13:28;;;;;;;4.00;2.27;;;;;;;;;;5093453;28;20754;-82
2023/07/11 00:15:59;;;;;;;6.90;2.77;;;;;;;;;;5093806;28;20409;-84
2023/07/11 00:18:25;;;;;;;4.87;2.50;;;;;;;;;;5093907;28;20392;-82
2023/07/11 00:20:51;;;;;;;6.60;2.87;;;;;;;;;;5093528;28;20869;-82
2023/07/11 00:23:17;;;;;;;4.63;2.83;;;;;;;;;;5093196;28;20948;-84
2023/07/11 00:25:43;;;;;;;6.23;2.60;;;;;;;;;;5093467;28;20463;-84
2023/07/11 00:28:09;;;;;;;4.17;2.50;;;;;;;;;;5092517;28;20426;-84
2023/07/11 00:30:35;;;;;;;3.73;2.53;;;;;;;;;;5094870;28;20402;-82
2023/07/11 00:33:01;;;;;;;2.40;2.13;;;;;;;;;;5093709;28;20916;-83
2023/07/11 00:35:27;;;;;;;3.87;2.27;;;;;;;;;;5094866;28;20466;-82
2023/07/11 00:37:53;;;;;;;2.37;2.17;;;;;;;;;;5094843;28;20403;-83
2023/07/11 00:40:19;;;;;;;3.63;2.27;;;;;;;;;;5094479;28;20504;-83
2023/07/11 00:42:45;;;;;;;5.30;2.67;;;;;;;;;;5094663;28;20385;-83
2023/07/11 00:45:29;;;;;;;3.40;1.93;;;;;;;;;;5094399;28;20841;-83
2023/07/11 00:47:55;;;;;;;5.63;2.43;;;;;;;;;;5093971;28;20373;-84
2023/07/11 00:50:22;;;;;;;5.30;2.63;;;;;;;;;;5092625;28;20476;-83
2023/07/11 00:52:48;;;;;;;2.90;1.97;;;;;;;;;;5093305;28;20402;-83
2023/07/11 00:55:14;;;;;;;3.97;2.80;;;;;;;;;;5094171;28;20506;-83
2023/07/11 00:57:41;;;;;;;4.47;2.50;;;;;;;;;;5094080;28;20385;-83
2023/07/11 01:00:08;;;;;;;3.80;2.47;;;;;;;;;;5094268;28;20377;-83
2023/07/11 01:02:34;;;;;;;5.10;2.33;;;;;;;;;;5093969;28;20374;-83
2023/07/11 01:05:01;;;;;;;2.87;2.27;;;;;;;;;;5094303;28;20432;-84
2023/07/11 01:07:33;;;;;;;4.53;2.70;;;;;;;;;;5092502;28;20392;-83
2023/07/11 01:09:59;;;;;;;4.10;2.30;;;;;;;;;;5094107;28;20417;-83
2023/07/11 01:12:25;;;;;;;3.93;2.20;;;;;;;;;;5092676;28;20905;-83
2023/07/11 01:14:51;;;;;;;8.93;3.53;;;;;;;;;;5092546;28;20429;-83
2023/07/11 01:17:23;;;;;;;5.83;2.10;;;;;;;;;;5092811;28;20402;-83
2023/07/11 01:19:50;;;;;;;5.73;2.60;;;;;;;;;;5093794;28;20754;-83
2023/07/11 01:22:16;;;;;;;2.90;2.40;;;;;;;;;;5093835;28;20778;-84
2023/07/11 01:24:42;;;;;;;5.93;2.00;;;;;;;;;;5093634;28;20373;-83
2023/07/11 01:27:08;;;;;;;3.30;2.10;;;;;;;;;;5093667;28;20455;-84
2023/07/11 01:29:34;;;;;;;5.83;2.73;;;;;;;;;;5092219;28;20476;-84
2023/07/11 01:32:00;;;;;;;3.80;2.77;;;;;;;;;;5092679;28;20460;-84
2023/07/11 01:34:26;;;;;;;4.60;2.40;;;;;;;;;;5093660;28;20425;-84
2023/07/11 01:36:52;;;;;;;2.77;2.40;;;;;;;;;;5092553;28;20405;-84
2023/07/11 01:39:18;;;;;;;3.87;2.83;;;;;;;;;;5093227;28;20454;-84
2023/07/11 01:41:44;;;;;;;6.57;2.80;;;;;;;;;;5075510;28;21008;-84
2023/07/11 01:44:11;;;;;;;2.90;2.30;;;;;;;;;;5092278;28;20501;-84
2023/07/11 01:46:37;;;;;;;5.47;2.73;;;;;;;;;;5093447;28;20373;-81
2023/07/11 01:49:03;;;;;;;13.37;2.30;;;;;;;;;;5092972;28;20965;-82
2023/07/11 01:51:31;;;;;;;6.47;2.80;;;;;;;;;;5091930;28;20540;-82
2023/07/11 01:53:57;;;;;;;3.47;2.40;;;;;;;;;;5093315;28;20401;-82
2023/07/11 01:56:23;;;;;;;4.40;2.33;;;;;;;;;;5093141;28;20410;-82
2023/07/11 01:58:49;;;;;;;3.07;2.50;;;;;;;;;;5093533;28;20411;-81
2023/07/11 02:01:15;;;;;;;6.93;2.50;;;;;;;;;;5092245;28;20466;-82
2023/07/11 02:03:41;;;;;;;3.70;2.67;;;;;;;;;;5091775;28;20400;-82
2023/07/11 02:06:07;;;;;;;8.83;2.77;;;;;;;;;;5075308;28;20525;-84
2023/07/11 02:08:34;;;;;;;4.20;2.63;;;;;;;;;;5075436;28;20411;-82
2023/07/11 02:11:00;;;;;;;4.63;2.50;;;;;;;;;;5093100;28;20384;-82
2023/07/11 02:13:25;;;;;;;4.63;2.57;;;;;;;;;;5091706;28;20422;-83
2023/07/11 02:15:51;;;;;;;2.70;2.30;;;;;;;;;;5093063;28;20410;-82
2023/07/11 02:18:18;;;;;;;3.50;2.63;;;;;;;;;;5092920;28;20928;-82
2023/07/11 02:20:44;;;;;;;3.60;2.90;;;;;;;;;;5091562;28;20468;-82
2023/07/11 02:23:14;;;;;;;5.30;3.43;;;;;;;;;;5093321;28;20544;-82
2023/07/11 02:25:40;;;;;;;3.23;2.37;;;;;;;;;;5092916;28;20711;-82
2023/07/11 02:28:06;;;;;;;3.87;3.07;;;;;;;;;;5075616;28;20393;-82
2023/07/11 02:30:32;;;;;;;4.63;2.70;;;;;;;;;;5093101;28;20438;-82
2023/07/11 02:33:01;;;;;;;7.57;3.00;;;;;;;;;;5093197;28;20485;-81
2023/07/11 02:35:27;;;;;;;6.57;2.47;;;;;;;;;;5074972;28;20432;-81
2023/07/11 02:37:53;;;;;;;10.60;2.80;;;;;;;;;;5091745;28;20393;-82
2023/07/11 02:40:19;;;;;;;4.93;2.93;;;;;;;;;;5092920;28;20440;-82
2023/07/11 02:42:45;;;;;;;4.97;2.40;;;;;;;;;;5091691;28;20400;-82
2023/07/11 02:45:12;;;;;;;3.00;2.67;;;;;;;;;;5093269;28;20381;-82
2023/07/11 02:47:38;;;;;;;5.77;3.20;;;;;;;;;;5092893;28;20384;-82
2023/07/11 02:50:05;;;;;;;4.60;2.93;;;;;;;;;;5091822;28;20468;-82
2023/07/11 02:52:31;;;;;;;5.50;2.13;;;;;;;;;;5078641;28;20431;-82
2023/07/11 02:54:57;;;;;;;6.83;2.90;;;;;;;;;;5095632;28;20805;-82
2023/07/11 02:57:23;;;;;;;3.43;2.60;;;;;;;;;;5096812;28;20381;-82
2023/07/11 02:59:49;;;;;;;3.70;2.50;;;;;;;;;;5095054;28;20418;-82
2023/07/11 03:02:14;;;;;;;4.17;2.57;;;;;;;;;;5096531;28;20428;-82
2023/07/11 03:04:40;;;;;;;3.13;2.00;;;;;;;;;;5095028;28;20470;-82
2023/07/11 03:07:06;;;;;;;3.07;2.33;;;;;;;;;;5096676;28;20486;-82
2023/07/11 03:09:34;;;;;;;3.13;2.33;;;;;;;;;;5095087;28;20396;-82
2023/07/11 03:12:00;;;;;;;7.90;2.60;;;;;;;;;;5095228;28;20426;-82
2023/07/11 03:14:26;;;;;;;9.53;2.77;;;;;;;;;;5095264;28;20874;-82
2023/07/11 03:16:52;;;;;;;4.83;3.10;;;;;;;;;;5094775;28;20392;-82
2023/07/11 03:19:20;;;;;;;5.23;2.70;;;;;;;;;;5094778;28;20437;-82
2023/07/11 03:21:46;;;;;;;3.33;2.30;;;;;;;;;;5094671;28;20500;-82
2023/07/11 03:24:12;;;;;;;5.20;2.60;;;;;;;;;;5094788;28;20485;-82
2023/07/11 03:26:38;;;;;;;4.30;2.50;;;;;;;;;;5095783;28;20905;-82
2023/07/11 03:29:04;;;;;;;4.13;2.50;;;;;;;;;;5095059;28;20382;-83
2023/07/11 03:31:30;;;;;;;6.73;3.10;;;;;;;;;;5095999;28;20385;-82
2023/07/11 03:33:56;;;;;;;2.80;2.37;;;;;;;;;;5094970;28;20459;-82
2023/07/11 03:36:22;;;;;;;5.10;3.00;;;;;;;;;;5094868;28;20411;-82
2023/07/11 03:38:48;;;;;;;3.70;2.50;;;;;;;;;;5077830;28;20850;-82
2023/07/11 03:41:14;;;;;;;3.13;2.43;;;;;;;;;;5094699;28;20436;-82
2023/07/11 03:43:40;;;;;;;6.50;2.60;;;;;;;;;;5095191;28;20794;-82
2023/07/11 03:46:06;;;;;;;5.20;3.00;;;;;;;;;;5077972;28;20418;-83
2023/07/11 03:48:32;;;;;;;6.67;2.47;;;;;;;;;;5095030;28;20477;-83
2023/07/11 03:50:58;;;;;;;6.80;2.50;;;;;;;;;;5095359;28;20475;-83
2023/07/11 03:53:24;;;;;;;4.10;2.33;;;;;;;;;;5077475;28;20816;-82
2023/07/11 03:55:50;;;;;;;3.27;2.50;;;;;;;;;;5093980;28;20442;-82
2023/07/11 03:58:16;;;;;;;2.53;2.23;;;;;;;;;;5095655;28;20445;-82
2023/07/11 04:00:42;;;;;;;3.13;2.83;;;;;;;;;;5095518;28;20490;-83
2023/07/11 04:03:08;;;;;;;3.90;2.83;;;;;;;;;;5077447;28;20393;-82
2023/07/11 04:05:34;;;;;;;5.87;2.63;;;;;;;;;;5093928;28;20532;-83
2023/07/11 04:08:00;;;;;;;3.07;2.43;;;;;;;;;;5094066;28;20846;-82
2023/07/11 04:10:26;;;;;;;4.50;2.80;;;;;;;;;;5094101;28;20388;-82
2023/07/11 04:12:52;;;;;;;3.70;2.70;;;;;;;;;;5093768;28;20927;-82
2023/07/11 04:15:18;;;;;;;4.03;2.50;;;;;;;;;;5095044;28;20377;-82
2023/07/11 04:17:44;;;;;;;6.13;2.83;;;;;;;;;;5093656;28;20414;-82
2023/07/11 04:20:10;;;;;;;6.43;2.93;;;;;;;;;;5094747;28;20472;-82
2023/07/11 04:22:37;;;;;;;5.30;2.50;;;;;;;;;;5093883;28;20775;-82
2023/07/11 04:25:03;;;;;;;6.33;2.93;;;;;;;;;;5094122;28;20410;-82
2023/07/11 04:27:29;;;;;;;5.30;2.30;;;;;;;;;;5095569;28;20423;-82
2023/07/11 04:29:55;;;;;;;2.63;2.33;;;;;;;;;;5093625;28;20422;-82
2023/07/11 04:32:21;;;;;;;3.20;2.50;;;;;;;;;;5095109;28;20521;-82
2023/07/11 04:34:49;;;;;;;5.67;3.23;;;;;;;;;;5094518;28;20394;-82
2023/07/11 04:37:15;;;;;;;4.43;2.80;;;;;;;;;;5093864;28;20412;-81
2023/07/11 04:39:41;;;;;;;5.77;2.53;;;;;;;;;;5076678;28;20449;-82
2023/07/11 04:42:10;;;;;;;6.67;2.90;;;;;;;;;;5094810;28;20548;-81
2023/07/11 04:44:36;;;;;;;6.33;4.13;;;;;;;;;;5093352;28;20422;-82
2023/07/11 04:47:02;;;;;;;4.20;3.00;;;;;;;;;;5093652;28;20489;-82
2023/07/11 04:49:28;;;;;;;5.43;2.90;;;;;;;;;;5094669;28;20527;-82
2023/07/11 04:51:54;;;;;;;4.70;2.70;;;;;;;;;;5094203;28;20406;-82
2023/07/11 04:54:20;;;;;;;8.77;3.10;;;;;;;;;;5093143;28;20430;-82
2023/07/11 04:56:54;;;;;;;5.30;2.33;;;;;;;;;;5094132;28;20463;-82
2023/07/11 04:59:20;;;;;;;4.73;3.20;;;;;;;;;;5094478;28;20364;-81
2023/07/11 05:01:46;;;;;;;9.17;2.97;;;;;;;;;;5094013;28;20447;-82
2023/07/11 05:04:12;;;;;;;3.87;2.63;;;;;;;;;;5076468;28;20500;-81
2023/07/11 05:06:40;;;;;;;2.87;2.57;;;;;;;;;;5076350;28;20385;-82
2023/07/11 05:09:06;;;;;;;3.90;2.27;;;;;;;;;;5092484;28;20390;-82
2023/07/11 05:11:32;;;;;;;4.63;2.50;;;;;;;;;;5093463;28;20411;-82
2023/07/11 05:13:58;;;;;;;3.70;2.30;;;;;;;;;;5093429;28;20421;-81
2023/07/11 05:16:25;;;;;;;6.53;2.87;;;;;;;;;;5093960;28;20399;-82
2023/07/11 05:18:51;;;;;;;8.23;2.90;;;;;;;;;;5093420;28;20963;-82
2023/07/11 05:21:18;;;;;;;3.63;2.10;;;;;;;;;;5093349;28;20436;-82
2023/07/11 05:23:44;;;;;;;4.03;2.43;;;;;;;;;;5091997;28;20408;-82
2023/07/11 05:26:11;;;;;;;2.93;2.53;;;;;;;;;;5094237;28;20444;-82
2023/07/11 05:28:37;;;;;;;9.60;2.53;;;;;;;;;;5091923;28;20493;-83
2023/07/11 05:31:04;;;;;;;5.93;2.80;;;;;;;;;;5092862;28;20502;-81
2023/07/11 05:33:30;;;;;;;4.07;2.50;;;;;;;;;;5094214;28;20373;-82
2023/07/11 05:36:23;;;;;;;5.83;2.60;;;;;;;;;;5093259;28;20474;-82
2023/07/11 05:38:49;;;;;;;4.17;2.60;;;;;;;;;;5093710;28;20369;-82
2023/07/11 05:41:15;;;;;;;4.40;2.93;;;;;;;;;;5093730;28;20789;-81
2023/07/11 05:43:41;;;;;;;2.47;2.27;;;;;;;;;;5093621;28;20410;-82
2023/07/11 05:46:07;;;;;;;6.77;3.00;;;;;;;;;;5092507;28;20464;-79
2023/07/11 05:48:33;;;;;;;3.37;2.50;;;;;;;;;;5091917;28;20833;-81
2023/07/11 05:51:07;;;;;;;5.37;2.47;;;;;;;;;;5093659;28;20426;-81
2023/07/11 05:53:33;;;;;;;4.70;2.70;;;;;;;;;;5092463;28;20887;-81
2023/07/11 05:55:59;;;;;;;5.00;2.30;;;;;;;;;;5092936;28;20409;-82
2023/07/11 05:58:26;;;;;;;7.33;2.90;;;;;;;;;;5092538;28;20919;-81
2023/07/11 06:00:53;;;;;;;3.83;2.63;;;;;;;;;;5091764;28;20436;-80
2023/07/11 06:03:19;;;;;;;9.20;2.60;;;;;;;;;;5093479;28;20418;-81
2023/07/11 06:05:45;;;;;;;6.30;3.00;;;;;;;;;;5093289;28;20460;-82
2023/07/11 06:08:12;;;;;;;5.53;2.90;;;;;;;;;;5092103;28;20806;-82
2023/07/11 06:10:39;;;;;;;7.67;2.10;;;;;;;;;;5092339;28;20410;-81
2023/07/11 06:13:05;;;;;;;5.80;2.80;;;;;;;;;;5093422;28;20377;-82
2023/07/11 06:15:31;;;;;;;4.10;2.70;;;;;;;;;;5092100;28;20485;-81
2023/07/11 06:17:57;;;;;;;6.87;2.77;;;;;;;;;;5091804;28;20493;-81
2023/07/11 06:20:23;;;;;;;4.70;2.60;;;;;;;;;;5092077;28;20552;-81
2023/07/11 06:22:49;;;;;;;4.43;2.37;;;;;;;;;;5091988;28;20418;-81
2023/07/11 06:25:15;;;;;;;6.60;3.20;;;;;;;;;;5092538;28;20425;-81
2023/07/11 06:27:41;;;;;;;3.90;2.63;;;;;;;;;;5097330;28;20381;-82
2023/07/11 06:30:08;;;;;;;2.97;2.30;;;;;;;;;;5097697;28;20955;-81
2023/07/11 06:32:34;;;;;;;3.13;2.40;;;;;;;;;;5097499;28;20402;-81
2023/07/11 06:35:00;;;;;;;4.03;3.00;;;;;;;;;;5095834;28;20769;-82
2023/07/11 06:37:26;;;;;;;3.63;3.00;;;;;;;;;;5096100;28;20406;-82
2023/07/11 06:39:51;;;;;;;2.67;2.47;;;;;;;;;;5095744;28;20383;-82
2023/07/11 06:42:18;;;;;;;3.37;2.80;;;;;;;;;;5097405;28;20461;-81
2023/07/11 06:44:44;;;;;;;5.07;2.37;;;;;;;;;;5097191;28;20407;-81
2023/07/11 06:47:10;;;;;;;4.60;2.60;;;;;;;;;;5096791;28;20417;-82
2023/07/11 06:49:36;;;;;;;5.80;2.60;;;;;;;;;;5096938;28;20462;-81
2023/07/11 06:52:02;;;;;;;2.60;2.40;;;;;;;;;;5096851;28;20411;-81
2023/07/11 06:54:28;;;;;;;4.63;2.90;;;;;;;;;;5096858;28;20759;-81
2023/07/11 06:56:54;;;;;;;4.90;2.70;;;;;;;;;;5098648;28;20910;-86
2023/07/11 06:59:20;;;;;;;3.27;2.70;;;;;;;;;;5096239;28;20421;-86
2023/07/11 07:01:46;;;;;;;4.47;3.20;;;;;;;;;;5096086;28;20770;-86
2023/07/11 07:04:14;;;;;;;5.30;3.03;;;;;;;;;;5077460;28;20476;-86
2023/07/11 07:06:40;;;;;;;6.63;2.93;;;;;;;;;;5092293;28;20411;-86
2023/07/11 07:09:06;;;;;;;5.30;3.27;;;;;;;;;;5094820;28;20494;-87
2023/07/11 07:11:35;;;;;;;4.43;3.00;;;;;;;;;;5095904;28;20414;-87
2023/07/11 07:14:01;;;;;;;5.27;3.20;;;;;;;;;;5097157;28;20419;-87
2023/07/11 07:16:28;;;;;;;3.17;2.60;;;;;;;;;;5095578;28;20414;-87
2023/07/11 07:18:57;;;;;;;4.13;2.67;;;;;;;;;;5097173;28;20419;-87
2023/07/11 07:21:23;;;;;;;8.53;3.03;;;;;;;;;;5094755;28;20466;-86
2023/07/11 07:23:49;;;;;;;6.50;3.33;;;;;;;;;;5078435;28;20430;-86
2023/07/11 07:26:18;;;;;;;13.80;3.20;;;;;;;;;;5095880;28;20377;-86
2023/07/11 07:28:44;;;;;;;6.60;2.97;;;;;;;;;;5093815;28;20415;-86
2023/07/11 07:31:10;;;;;;;3.50;2.97;;;;;;;;;;5094090;28;20444;-87
2023/07/11 07:33:36;;;;;;;4.80;2.50;;;;;;;;;;5094429;28;20489;-86
2023/07/11 07:36:03;;;;;;;3.83;2.40;;;;;;;;;;5093787;28;20446;-87
2023/07/11 07:38:29;;;;;;;5.30;2.60;;;;;;;;;;5094523;28;20412;-85
2023/07/11 07:40:56;;;;;;;4.73;2.60;;;;;;;;;;5093450;28;20465;-85
2023/07/11 07:43:22;;;;;;;4.10;2.50;;;;;;;;;;5094009;28;20411;-85
2023/07/11 07:45:49;;;;;;;5.03;2.67;;;;;;;;;;5095467;28;20882;-85
2023/07/11 07:48:15;;;;;;;6.63;2.63;;;;;;;;;;5093922;28;20479;-86
2023/07/11 07:50:41;;;;;;;5.10;2.70;;;;;;;;;;5094214;28;20389;-85
2023/07/11 07:53:07;;;;;;;3.40;2.27;;;;;;;;;;5093782;28;20437;-85
2023/07/11 07:55:37;;;;;;;4.50;2.57;;;;;;;;;;5095277;28;20407;-85
2023/07/11 07:58:03;;;;;;;6.73;2.47;;;;;;;;;;5095013;28;20464;-85
2023/07/11 08:00:29;;;;;;;5.70;2.10;;;;;;;;;;5096685;28;20457;-85
2023/07/11 08:02:55;;;;;;;4.20;2.30;;;;;;;;;;5094153;28;20471;-87
2023/07/11 08:05:21;;;;;;;4.87;2.37;;;;;;;;;;5093701;28;20488;-85
2023/07/11 08:07:47;;;;;;;5.80;2.67;;;;;;;;;;5093377;28;20500;-84
2023/07/11 08:10:15;;;;;;;3.80;2.40;;;;;;;;;;5093142;28;20961;-84
2023/07/11 08:12:41;;;;;;;3.73;2.43;;;;;;;;;;5082557;28;20481;-85
2023/07/11 08:15:08;;;;;;;4.03;2.23;;;;;;;;;;5088882;28;20448;-84
2023/07/11 08:17:37;;;;;;;5.03;2.70;;;;;;;;;;5093077;28;20402;-85
2023/07/11 08:20:03;;;;;;;3.50;2.00;;;;;;;;;;5076499;28;20418;-84
2023/07/11 08:22:29;;;;;;;4.53;2.93;;;;;;;;;;5076451;28;20517;-85
2023/07/11 08:24:55;;;;;;;4.07;2.50;;;;;;;;;;5094995;28;20398;-84
2023/07/11 08:27:22;;;;;;;3.20;2.17;;;;;;;;;;5094144;28;20398;-84
2023/07/11 08:29:48;;;;;;;10.13;2.60;;;;;;;;;;5094087;28;20402;-84
2023/07/11 08:32:15;;;;;;;3.20;2.53;;;;;;;;;;5081611;28;20417;-84
2023/07/11 08:34:41;;;;;;;4.93;2.17;;;;;;;;;;5076440;28;20429;-83
2023/07/11 08:37:08;;;;;;;3.03;2.17;;;;;;;;;;5094225;28;20398;-83
2023/07/11 08:39:34;;;;;;;7.13;2.80;;;;;;;;;;5076494;28;20414;-84
2023/07/11 08:42:02;;;;;;;5.43;2.93;;;;;;;;;;5086515;28;20462;-86
2023/07/11 08:44:39;;;;;;;3.97;2.40;;;;;;;;;;5092729;28;20426;-86
2023/07/11 08:47:09;;;;;;;3.73;1.97;;;;;;;;;;5092303;28;20906;-84
2023/07/11 08:49:55;;;;;;;3.37;2.43;;;;;;;;;;5091157;28;20994;-85
2023/07/11 08:52:22;;;;;;;7.93;2.33;;;;;;;;;;5094250;28;20386;-84
2023/07/11 08:54:57;;;;;;;5.20;2.40;;;;;;;;;;5085226;28;20821;-84
2023/07/11 08:57:25;;;;;;;4.80;2.53;;;;;;;;;;5091185;28;20464;-87
2023/07/11 08:59:54;;;;;;;2.70;2.30;;;;;;;;;;5075082;28;20854;-83
2023/07/11 09:02:27;;;;;;;6.27;2.40;;;;;;;;;;5071721;28;20976;-84
2023/07/11 09:04:53;;;;;;;4.50;3.00;;;;;;;;;;5072278;28;20456;-84
2023/07/11 09:07:36;;;;;;;11.40;2.70;;;;;;;;;;5072487;28;20469;-83
2023/07/11 09:10:02;;;;;;;5.43;2.33;;;;;;;;;;5073499;28;20391;-84
2023/07/11 09:12:47;;;;;;;3.77;2.77;;;;;;;;;;5071867;28;20424;-84
2023/07/11 09:15:19;;;;;;;5.17;2.47;;;;;;;;;;5073345;28;20490;-86
2023/07/11 09:17:48;;;;;;;4.80;2.50;;;;;;;;;;5071888;28;20414;-85
2023/07/11 09:20:24;;;;;;;4.90;2.63;;;;;;;;;;5071999;28;20454;-86
2023/07/11 09:23:20;;;;;;;5.87;2.63;;;;;;;;;;5072623;28;20415;-86
2023/07/11 09:25:47;;;;;;;2.80;2.50;;;;;;;;;;5002011;28;20478;-85
2023/07/11 09:28:21;;;;;;;3.07;2.37;;;;;;;;;;5055580;28;20451;-85
2023/07/11 09:30:55;;;;;;;4.60;3.30;;;;;;;;;;5071713;28;20417;-85
2023/07/11 09:33:26;;;;;;;2.53;2.10;;;;;;;;;;5072061;28;20415;-87
2023/07/11 09:35:53;;;;;;;4.20;2.50;;;;;;;;;;5071841;28;20414;-86
2023/07/11 09:38:23;;;;;;;7.60;2.50;;;;;;;;;;5072218;28;20939;-86
2023/07/11 09:41:04;;;;;;;4.90;2.53;;;;;;;;;;5071534;28;20461;-87
2023/07/11 09:43:30;;;;;;;6.50;2.53;;;;;;;;;;5071847;28;20422;-87
2023/07/11 09:45:56;;;;;;;2.57;2.00;;;;;;;;;;5070912;28;20415;-88
2023/07/11 09:48:34;;;;;;;3.83;2.40;;;;;;;;;;5072797;28;20502;-87
2023/07/11 09:51:05;;;;;;;3.17;2.50;;;;;;;;;;5071567;28;20787;-87
2023/07/11 09:53:34;;;;;;;5.40;2.47;;;;;;;;;;5072116;28;20423;-88
2023/07/11 09:56:04;;;;;;;4.37;2.47;;;;;;;;;;5071537;28;20415;-87
2023/07/11 09:58:34;;;;;;;4.47;2.50;;;;;;;;;;5071423;28;20779;-90
2023/07/11 10:01:01;;;;;;;5.30;3.03;;;;;;;;;;5089333;28;20462;-88
2023/07/11 10:03:29;;;;;;;2.50;2.30;;;;;;;;;;5095692;28;20425;-88
2023/07/11 10:05:55;;;;;;;5.37;2.70;;;;;;;;;;5089161;28;20426;-87
2023/07/11 10:08:29;;;;;;;6.30;2.60;;;;;;;;;;5075383;28;20411;-88
2023/07/11 10:11:01;;;;;;;5.73;2.53;;;;;;;;;;5076252;28;20414;-88
2023/07/11 10:13:27;;;;;;;4.17;2.60;;;;;;;;;;5075643;28;20415;-87
2023/07/11 10:15:57;;;;;;;7.87;2.97;;;;;;;;;;5075655;28;20918;-88
2023/07/11 10:18:38;;;;;;;;;;;;;;;;;;;;;
2023/07/11 10:21:18;;;;;;;4.60;2.50;;;;;;;;;;5077012;28;20960;-90
2023/07/11 10:23:54;;;;;;;4.50;2.80;;;;;;;;;;5076020;28;20481;-91
2023/07/11 10:26:46;;;;;;;3.03;2.47;;;;;;;;;;5076386;28;20391;-90
2023/07/11 10:29:22;;;;;;;4.80;2.50;;;;;;;;;;5073717;28;20419;-88
2023/07/11 10:31:55;;;;;;;4.43;2.30;;;;;;;;;;5081262;28;20420;-89
2023/07/11 10:34:25;;;;;;;4.07;2.90;;;;;;;;;;5084736;28;20928;-93
2023/07/11 10:36:58;;;;;;;3.90;2.63;;;;;;;;;;5078406;28;20414;-77
2023/07/11 10:39:43;;;;;;;3.37;2.70;;;;;;;;;;5096283;28;20399;-81
2023/07/11 10:42:21;;;;;;;7.73;2.80;;;;;;;;;;5096235;28;20848;-82
2023/07/11 10:44:48;;;;;;;3.83;2.43;;;;;;;;;;5095335;28;20418;-82
2023/07/11 10:47:19;;;;;;;2.60;2.40;;;;;;;;;;5096455;28;20414;-81
2023/07/11 10:49:46;;;;;;;3.10;2.43;;;;;;;;;;5093326;28;20636;-75
2023/07/11 10:52:21;;;;;;;3.27;2.90;;;;;;;;;;5075224;28;20775;-76
2023/07/11 10:54:59;;;;;;;4.10;2.70;;;;;;;;;;5074791;28;20419;-75
2023/07/11 10:57:38;;;;;;;4.03;2.90;;;;;;;;;;5076383;28;20399;-75
2023/07/11 11:00:08;;;;;;;9.30;3.30;;;;;;;;;;5075783;28;20396;-76
2023/07/11 11:02:54;;;;;;;3.53;2.50;;;;;;;;;;5074854;28;20454;-76
2023/07/11 11:05:24;;;;;;;5.07;3.03;;;;;;;;;;5075496;28;20764;-78
2023/07/11 11:07:55;;;;;;;4.80;3.00;;;;;;;;;;5076054;28;20422;-79
2023/07/11 11:10:36;;;;;;;3.43;2.30;;;;;;;;;;5076679;28;20441;-76
2023/07/11 11:13:17;;;;;;;4.47;3.10;;;;;;;;;;5080292;28;20921;-75
2023/07/11 11:15:49;;;;;;;4.70;3.00;;;;;;;;;;5095337;28;20477;-76
2023/07/11 11:18:19;;;;;;;3.03;2.73;;;;;;;;;;5092715;28;20421;-76
2023/07/11 11:20:48;;;;;;;9.27;2.63;;;;;;;;;;5092557;28;20466;-77
2023/07/11 11:23:25;;;;;;;2.83;2.60;;;;;;;;;;5095345;28;20464;-77
2023/07/11 11:26:10;;;;;;;4.10;2.37;;;;;;;;;;5094434;28;20533;-76
2023/07/11 11:28:53;;;;;;;3.10;2.80;;;;;;;;;;5095286;28;20902;-76
2023/07/11 11:31:21;;;;;;;2.90;2.60;;;;;;;;;;5094060;28;20479;-76
2023/07/11 11:33:47;;;;;;;2.97;2.67;;;;;;;;;;5094567;28;20460;-75
2023/07/11 11:36:19;;;;;;;5.10;2.77;;;;;;;;;;5094897;28;20411;-76
2023/07/11 11:38:55;;;;;;;5.03;2.77;;;;;;;;;;5095648;28;20239;-77
2023/07/11 11:41:29;;;;;;;3.13;2.43;;;;;;;;;;5093835;28;20898;-76
2023/07/11 11:43:55;;;;;;;4.70;2.60;;;;;;;;;;5095469;28;20383;-77
2023/07/11 11:46:21;;;;;;;4.93;3.20;;;;;;;;;;5093647;28;20414;-77
2023/07/11 11:48:47;;;;;;;5.13;2.67;;;;;;;;;;5093491;28;20551;-77
2023/07/11 11:51:15;;;;;;;3.67;2.70;;;;;;;;;;5094649;28;20740;-78
2023/07/11 11:53:46;;;;;;;7.23;2.57;;;;;;;;;;5093943;28;20414;-77
2023/07/11 11:56:21;;;;;;;3.30;2.30;;;;;;;;;;5093826;28;20414;-78
2023/07/11 11:59:01;;;;;;;3.73;3.37;;;;;;;;;;5095051;28;20733;-77
2023/07/11 12:01:32;;;;;;;2.40;2.20;;;;;;;;;;5093747;28;20468;-78
2023/07/11 12:03:58;;;;;;;3.57;2.63;;;;;;;;;;5093951;28;20402;-77
2023/07/11 12:06:34;;;;;;;3.70;2.87;;;;;;;;;;5094401;28;20408;-77
2023/07/11 12:09:26;;;;;;;3.50;2.60;;;;;;;;;;5094579;28;20430;-79
2023/07/11 12:12:12;;;;;;;4.00;2.90;;;;;;;;;;5062845;28;20440;-77
2023/07/11 12:14:53;;;;;;;3.00;2.70;;;;;;;;;;5094446;28;20931;-77
2023/07/11 12:17:34;;;;;;;4.10;2.73;;;;;;;;;;5093601;28;20886;-78
2023/07/11 12:20:00;;;;;;;3.07;2.73;;;;;;;;;;5093976;28;20433;-77
2023/07/11 12:22:26;;;;;;;3.70;2.60;;;;;;;;;;5089681;28;20466;-76
2023/07/11 12:25:07;;;;;;;6.33;2.80;;;;;;;;;;5093105;28;20616;-76
2023/07/11 12:27:33;;;;;;;7.17;3.00;;;;;;;;;;5093251;28;20422;-76
2023/07/11 12:30:00;;;;;;;2.93;2.73;;;;;;;;;;5094410;28;20407;-77
2023/07/11 12:32:33;;;;;;;3.30;3.03;;;;;;;;;;5093655;28;20418;-77
2023/07/11 12:35:04;;;;;;;4.37;3.10;;;;;;;;;;5092982;28;20418;-76
2023/07/11 12:37:37;;;;;;;4.13;3.00;;;;;;;;;;5094240;28;20398;-77
2023/07/11 12:40:15;;;;;;;3.90;2.73;;;;;;;;;;5093431;28;20430;-76
2023/07/11 12:42:53;;;;;;;4.20;3.23;;;;;;;;;;5094189;28;20414;-77
2023/07/11 12:45:20;;;;;;;3.73;3.00;;;;;;;;;;5093890;28;20424;-77
2023/07/11 12:47:48;;;;;;;4.90;3.70;;;;;;;;;;5093655;28;20403;-77
2023/07/11 12:50:23;;;;;;;6.80;3.30;;;;;;;;;;5074862;28;20473;-78
2023/07/11 12:53:02;;;;;;;3.57;3.00;;;;;;;;;;5073851;28;20390;-78
2023/07/11 12:55:29;;;;;;;5.47;3.27;;;;;;;;;;5072915;28;20408;-78
2023/07/11 12:57:56;;;;;;;4.03;3.07;;;;;;;;;;5073425;28;20881;-77
2023/07/11 13:00:23;;;;;;;3.10;2.80;;;;;;;;;;5055445;28;20427;-77
2023/07/11 13:03:02;;;;;;;3.83;3.33;;;;;;;;;;5072921;28;20585;-77
2023/07/11 13:05:38;;;;;;;3.53;2.80;;;;;;;;;;5073642;28;20449;-78
2023/07/11 13:08:15;;;;;;;5.73;3.23;;;;;;;;;;5073420;28;20379;-79
2023/07/11 13:10:41;;;;;;;3.50;3.20;;;;;;;;;;5072684;28;20418;-78
2023/07/11 13:13:11;;;;;;;2.83;2.63;;;;;;;;;;5055305;28;20771;-78
2023/07/11 13:15:38;;;;;;;4.27;3.37;;;;;;;;;;5073451;28;20443;-78
2023/07/11 13:18:07;;;;;;;4.30;3.50;;;;;;;;;;5072172;28;20407;-78
2023/07/11 13:20:36;;;;;;;3.47;3.10;;;;;;;;;;5072646;28;20464;-78
2023/07/11 13:23:02;;;;;;;4.20;3.83;;;;;;;;;;5071625;28;20419;-77
2023/07/11 13:25:33;;;;;;;3.70;3.00;;;;;;;;;;5072274;28;20426;-79
2023/07/11 13:27:59;;;;;;;6.10;3.00;;;;;;;;;;5055330;28;20407;-78
2023/07/11 13:30:27;;;;;;;4.43;3.40;;;;;;;;;;5072964;28;20403;-79
2023/07/11 13:32:54;;;;;;;4.93;3.60;;;;;;;;;;5072339;28;20395;-79
2023/07/11 13:35:20;;;;;;;5.77;3.30;;;;;;;;;;5072514;28;20407;-79
2023/07/11 13:37:47;;;;;;;3.70;3.40;;;;;;;;;;5073226;28;20491;-79
2023/07/11 13:40:32;;;;;;;4.07;3.43;;;;;;;;;;5072193;28;20399;-78
2023/07/11 13:42:59;;;;;;;4.97;3.93;;;;;;;;;;5073095;28;20544;-78
2023/07/11 13:45:25;;;;;;;4.93;3.50;;;;;;;;;;5073171;28;20403;-78
2023/07/11 13:47:52;;;;;;;6.50;4.10;;;;;;;;;;5071853;28;20902;-79
2023/07/11 13:50:29;;;;;;;6.60;3.50;;;;;;;;;;5091795;28;20536;-78
2023/07/11 13:53:07;;;;;;;5.33;3.83;;;;;;;;;;5093324;28;20447;-78
2023/07/11 13:55:36;;;;;;;3.77;3.20;;;;;;;;;;5090814;28;20417;-78
2023/07/11 13:58:02;;;;;;;3.03;2.83;;;;;;;;;;5092882;28;20421;-76
2023/07/11 14:00:29;;;;;;;3.73;3.33;;;;;;;;;;5092668;28;20411;-77
2023/07/11 14:02:55;;;;;;;6.40;2.97;;;;;;;;;;5074044;28;20945;-77
2023/07/11 14:05:22;;;;;;;4.30;3.47;;;;;;;;;;5092630;28;20489;-78
2023/07/11 14:07:49;;;;;;;3.60;2.97;;;;;;;;;;5092638;28;20402;-77
2023/07/11 14:10:16;;;;;;;4.00;3.70;;;;;;;;;;5091892;28;20481;-78
2023/07/11 14:12:42;;;;;;;3.70;3.37;;;;;;;;;;5093226;28;20398;-77
2023/07/11 14:15:18;;;;;;;4.43;3.37;;;;;;;;;;5092792;28;20394;-78
2023/07/11 14:17:45;;;;;;;5.93;3.20;;;;;;;;;;5091915;28;20766;-77
2023/07/11 14:20:15;;;;;;;5.20;3.60;;;;;;;;;;5092663;28;20802;-77
2023/07/11 14:22:41;;;;;;;3.13;2.83;;;;;;;;;;5091352;28;20466;-77
2023/07/11 14:25:18;;;;;;;3.17;2.87;;;;;;;;;;5090773;28;20913;-78
2023/07/11 14:27:45;;;;;;;2.97;2.67;;;;;;;;;;5092847;28;20386;-77
2023/07/11 14:30:12;;;;;;;3.40;2.40;;;;;;;;;;5091092;28;20430;-77
2023/07/11 14:32:38;;;;;;;3.50;2.67;;;;;;;;;;5092054;28;20761;-77
2023/07/11 14:35:05;;;;;;;4.77;2.97;;;;;;;;;;5093094;28;20513;-77
2023/07/11 14:37:31;;;;;;;3.93;3.30;;;;;;;;;;5092860;28;20757;-76
2023/07/11 14:39:57;;;;;;;4.37;3.03;;;;;;;;;;5091880;28;20407;-77
2023/07/11 14:42:27;;;;;;;4.63;2.83;;;;;;;;;;5092406;28;20848;-77
2023/07/11 14:44:53;;;;;;;4.67;2.83;;;;;;;;;;5090935;28;20495;-77
2023/07/11 14:47:19;;;;;;;3.27;2.97;;;;;;;;;;5093890;28;20410;-78
2023/07/11 14:49:45;;;;;;;3.07;2.87;;;;;;;;;;5094523;28;20461;-76
2023/07/11 14:52:21;;;;;;;3.93;2.53;;;;;;;;;;5096139;28;20181;-77